Weather at Billy Bishop Toronto City Centre Airport

Public forecast

Using degrees Celsius for public forecast. Weather courtesy of forecast.io.

Current aviation weather report (METAR) for Billy Bishop Toronto City Centre Airport

Retrieved 2020/12/03 12:00 UTC (53 minutes ago):

CYTZ 031200Z AUTO 25022G27KT 9SM CLR 02/M04 A3001 RMK SLP168

Aviation forecast (TAF) for Billy Bishop Toronto City Centre Airport

Forecast is more than 12 hours old.

Retrieved 2020/12/02 14:44 UTC (22 hours ago):

TAF CYTZ 021338Z 0214/0314 28012G22KT P6SM BKN025 BECMG 0214/0216 SKC BECMG 0301/0303 24010KT FM030900 25015G25KT P6SM SCT020 RMK FCST BASED ON AUTO OBS NXT FCST BY 022000Z